Time,TemperatureF,DewpointF,PressureIn,WindDirection,WindDirectionDegrees,WindSpeedMPH,WindSpeedGustMPH,Humidity,HourlyPrecipIn,Conditions,Clouds,dailyrainin,SoftwareType,DateUTC
2013-02-14 00:02:00,41.2,27.1,30.02,SSW,196,2.0,2.0,57,0.00,,CLR,0.00,VWS V14.01,2013-02-14 06:02:00,
2013-02-14 00:07:00,40.6,27.8,30.02,South,174,0.0,5.0,60,0.00,,CLR,0.00,VWS V14.01,2013-02-14 06:07:00,
2013-02-14 00:12:00,39.9,27.6,30.02,South,171,0.0,5.0,61,0.00,,CLR,0.00,VWS V14.01,2013-02-14 06:12:00,
2013-02-14 00:17:00,39.5,27.6,30.02,South,169,2.0,5.0,62,0.00,,CLR,0.00,VWS V14.01,2013-02-14 06:17:00,
2013-02-14 00:22:00,39.2,27.3,30.02,South,171,0.0,5.0,62,0.00,,CLR,0.00,VWS V14.01,2013-02-14 06:22:00,
2013-02-14 00:27:00,39.2,26.9,30.02,South,169,1.0,5.0,61,0.00,,CLR,0.00,VWS V14.01,2013-02-14 06:27:00,
2013-02-14 00:32:00,39.3,26.2,30.02,SSW,198,2.0,5.0,59,0.00,,CLR,0.00,VWS V14.01,2013-02-14 06:32:00,
2013-02-14 00:37:00,39.6,26.1,30.02,SSW,196,0.0,5.0,58,0.00,,CLR,0.00,VWS V14.01,2013-02-14 06:37:00,
2013-02-14 00:42:00,39.8,26.2,30.02,SSW,200,3.0,5.0,58,0.00,,CLR,0.00,VWS V14.01,2013-02-14 06:42:00,
2013-02-14 00:47:00,39.8,26.7,30.02,SSW,196,0.0,5.0,59,0.00,,CLR,0.00,VWS V14.01,2013-02-14 06:47:00,
2013-02-14 00:52:00,39.8,26.7,30.02,SSW,200,2.0,6.0,59,0.00,,CLR,0.00,VWS V14.01,2013-02-14 06:52:00,
2013-02-14 00:57:00,39.6,26.1,30.02,SSW,206,2.0,6.0,58,0.00,,CLR,0.00,VWS V14.01,2013-02-14 06:57:00,
2013-02-14 01:02:00,39.5,26.4,30.02,South,191,2.0,2.0,59,0.00,,CLR,0.00,VWS V14.01,2013-02-14 07:02:00,
2013-02-14 01:07:00,39.2,26.5,30.02,SSW,195,1.0,5.0,60,0.00,,CLR,0.00,VWS V14.01,2013-02-14 07:07:00,
2013-02-14 01:13:00,38.9,26.6,30.02,SSW,196,2.0,5.0,61,0.00,,CLR,0.00,VWS V14.01,2013-02-14 07:13:00,
2013-02-14 01:18:00,38.8,26.5,30.02,SSW,193,0.0,5.0,61,0.00,,CLR,0.00,VWS V14.01,2013-02-14 07:18:00,
2013-02-14 01:23:00,38.6,26.3,30.02,South,188,0.0,5.0,61,0.00,,CLR,0.00,VWS V14.01,2013-02-14 07:23:00,
2013-02-14 01:28:00,38.5,26.2,30.02,SSW,193,1.0,5.0,61,0.00,,CLR,0.00,VWS V14.01,2013-02-14 07:28:00,
2013-02-14 01:33:00,38.6,26.3,30.02,SSW,198,0.0,5.0,61,0.00,,CLR,0.00,VWS V14.01,2013-02-14 07:33:00,
2013-02-14 01:38:00,38.6,26.3,30.02,SSW,198,2.0,5.0,61,0.00,,CLR,0.00,VWS V14.01,2013-02-14 07:38:00,
2013-02-14 01:43:00,38.5,26.6,30.02,SW,215,1.0,5.0,62,0.00,,CLR,0.00,VWS V14.01,2013-02-14 07:43:00,
2013-02-14 01:48:00,38.5,26.6,30.02,SSW,199,0.0,5.0,62,0.00,,CLR,0.00,VWS V14.01,2013-02-14 07:48:00,
2013-02-14 01:53:00,38.5,26.6,30.02,SSW,205,5.0,5.0,62,0.00,,CLR,0.00,VWS V14.01,2013-02-14 07:53:00,
2013-02-14 01:58:00,38.6,26.7,30.02,SSW,205,0.0,5.0,62,0.00,,CLR,0.00,VWS V14.01,2013-02-14 07:58:00,
2013-02-14 02:03:00,38.8,26.1,30.02,SSW,206,0.0,2.0,60,0.00,,CLR,0.00,VWS V14.01,2013-02-14 08:03:00,
2013-02-14 02:08:00,38.8,26.1,30.02,SSW,205,2.0,5.0,60,0.00,,CLR,0.00,VWS V14.01,2013-02-14 08:08:00,
2013-02-14 02:13:00,38.8,25.7,30.02,SSW,202,2.0,5.0,59,0.00,,CLR,0.00,VWS V14.01,2013-02-14 08:13:00,
2013-02-14 02:18:00,38.8,26.5,30.02,SSW,200,2.0,5.0,61,0.00,,CLR,0.00,VWS V14.01,2013-02-14 08:18:00,
2013-02-14 02:23:00,38.8,26.5,30.02,SSW,195,0.0,5.0,61,0.00,,CLR,0.00,VWS V14.01,2013-02-14 08:23:00,
2013-02-14 02:28:00,38.5,26.2,30.02,SSW,200,0.0,5.0,61,0.00,,CLR,0.00,VWS V14.01,2013-02-14 08:28:00,
2013-02-14 02:33:00,38.2,25.5,30.02,SSW,200,0.0,5.0,60,0.00,,CLR,0.00,VWS V14.01,2013-02-14 08:33:00,
2013-02-14 02:38:00,38.3,24.4,30.02,SSW,200,0.0,5.0,57,0.00,,CLR,0.00,VWS V14.01,2013-02-14 08:38:00,
2013-02-14 02:43:00,38.8,24.0,30.02,SW,219,0.0,5.0,55,0.00,,CLR,0.00,VWS V14.01,2013-02-14 08:43:00,
2013-02-14 02:48:00,39.2,23.5,30.02,WSW,248,0.0,5.0,53,0.00,,CLR,0.00,VWS V14.01,2013-02-14 08:48:00,
2013-02-14 02:53:00,39.5,23.4,30.02,WSW,247,1.0,5.0,52,0.00,,CLR,0.00,VWS V14.01,2013-02-14 08:53:00,
2013-02-14 02:58:00,39.8,23.6,30.02,WSW,243,0.0,5.0,52,0.00,,CLR,0.00,VWS V14.01,2013-02-14 08:58:00,
2013-02-14 03:00:00,37.5,24.1,30.01,SSW,200,1.0,5.0,58,0.00,,OVC041CB,0.00,VWS V14.01,2013-02-14 09:00:00,
2013-02-14 03:03:00,39.8,23.6,30.02,SW,224,1.0,3.0,52,0.00,,CLR,0.00,VWS V14.01,2013-02-14 09:03:00,
2013-02-14 03:08:00,39.6,23.4,30.02,SW,217,2.0,5.0,52,0.00,,CLR,0.00,VWS V14.01,2013-02-14 09:08:00,
2013-02-14 03:14:00,39.6,23.4,30.02,SSW,205,0.0,5.0,52,0.00,,CLR,0.00,VWS V14.01,2013-02-14 09:14:00,
2013-02-14 03:19:00,39.5,23.4,30.01,SSW,196,0.0,5.0,52,0.00,,CLR,0.00,VWS V14.01,2013-02-14 09:19:00,
2013-02-14 03:24:00,39.3,23.6,30.01,SSW,198,1.0,5.0,53,0.00,,CLR,0.00,VWS V14.01,2013-02-14 09:24:00,
2013-02-14 03:29:00,39.1,23.9,30.01,SSW,199,0.0,5.0,54,0.00,,CLR,0.00,VWS V14.01,2013-02-14 09:29:00,
2013-02-14 03:34:00,38.8,24.0,30.01,SSW,199,1.0,5.0,55,0.00,,CLR,0.00,VWS V14.01,2013-02-14 09:34:00,
2013-02-14 03:39:00,38.6,23.8,30.01,SSW,199,0.0,5.0,55,0.00,,CLR,0.00,VWS V14.01,2013-02-14 09:39:00,
2013-02-14 03:44:00,38.3,24.4,30.01,SSW,195,0.0,5.0,57,0.00,,CLR,0.00,VWS V14.01,2013-02-14 09:44:00,
2013-02-14 03:49:00,37.9,24.5,30.01,SSW,195,0.0,5.0,58,0.00,,CLR,0.00,VWS V14.01,2013-02-14 09:49:00,
2013-02-14 03:54:00,37.5,24.5,30.01,SSW,200,0.0,5.0,59,0.00,,CLR,0.00,VWS V14.01,2013-02-14 09:54:00,
2013-02-14 03:59:00,37.3,24.3,30.01,SSW,203,1.0,5.0,59,0.00,,CLR,0.00,VWS V14.01,2013-02-14 09:59:00,
2013-02-14 04:04:00,37.6,24.2,30.01,SSW,203,2.0,2.0,58,0.00,,CLR,0.00,VWS V14.01,2013-02-14 10:04:00,
2013-02-14 04:09:00,37.8,23.5,30.01,SSW,209,2.0,5.0,56,0.00,,CLR,0.00,VWS V14.01,2013-02-14 10:09:00,
2013-02-14 04:14:00,38.2,23.9,30.01,SSW,200,1.0,5.0,56,0.00,,CLR,0.00,VWS V14.01,2013-02-14 10:14:00,
2013-02-14 04:19:00,38.2,23.9,30.01,SSW,200,2.0,5.0,56,0.00,,CLR,0.00,VWS V14.01,2013-02-14 10:19:00,
2013-02-14 04:24:00,38.2,23.9,30.01,SSW,203,0.0,5.0,56,0.00,,CLR,0.00,VWS V14.01,2013-02-14 10:24:00,
2013-02-14 04:29:00,38.0,23.7,30.01,SSW,199,2.0,5.0,56,0.00,,CLR,0.00,VWS V14.01,2013-02-14 10:29:00,
2013-02-14 04:34:00,38.0,23.3,30.01,SSW,192,2.0,5.0,55,0.00,,CLR,0.00,VWS V14.01,2013-02-14 10:34:00,
2013-02-14 04:39:00,38.2,23.5,30.01,South,191,2.0,5.0,55,0.00,,CLR,0.00,VWS V14.01,2013-02-14 10:39:00,
2013-02-14 04:44:00,38.2,23.5,30.01,SSW,206,2.0,7.0,55,0.00,,CLR,0.00,VWS V14.01,2013-02-14 10:44:00,
2013-02-14 04:49:00,38.2,23.5,30.01,SSW,208,3.0,7.0,55,0.00,,CLR,0.00,VWS V14.01,2013-02-14 10:49:00,
2013-02-14 04:54:00,38.0,22.9,30.01,SSW,203,0.0,7.0,54,0.00,,CLR,0.00,VWS V14.01,2013-02-14 10:54:00,
2013-02-14 05:00:00,37.9,23.2,30.01,SSW,198,0.0,7.0,55,0.00,,CLR,0.00,VWS V14.01,2013-02-14 11:00:00,
2013-02-14 05:05:00,37.8,23.5,30.01,SSW,205,6.0,6.0,56,0.00,,CLR,0.00,VWS V14.01,2013-02-14 11:05:00,
2013-02-14 05:10:00,37.3,23.9,30.01,South,191,1.0,7.0,58,0.00,,CLR,0.00,VWS V14.01,2013-02-14 11:10:00,
2013-02-14 05:15:00,37.0,23.2,30.02,SSW,200,2.0,7.0,57,0.00,,CLR,0.00,VWS V14.01,2013-02-14 11:15:00,
2013-02-14 05:20:00,36.9,23.5,30.02,SSW,205,2.0,7.0,58,0.00,,CLR,0.00,VWS V14.01,2013-02-14 11:20:00,
2013-02-14 05:25:00,36.6,24.4,30.02,SSW,208,2.0,7.0,61,0.00,,CLR,0.00,VWS V14.01,2013-02-14 11:25:00,
2013-02-14 05:30:00,36.5,24.3,30.02,SSW,198,5.0,7.0,61,0.00,,CLR,0.00,VWS V14.01,2013-02-14 11:30:00,
2013-02-14 05:35:00,36.5,24.0,30.02,SSW,196,5.0,7.0,60,0.00,,CLR,0.00,VWS V14.01,2013-02-14 11:35:00,
2013-02-14 05:40:00,36.5,24.3,30.02,SSW,198,5.0,7.0,61,0.00,,CLR,0.00,VWS V14.01,2013-02-14 11:40:00,
2013-02-14 05:45:00,36.5,24.0,30.02,SSW,198,1.0,7.0,60,0.00,,CLR,0.00,VWS V14.01,2013-02-14 11:45:00,
2013-02-14 05:50:00,36.3,24.1,30.02,SSW,196,0.0,7.0,61,0.00,,CLR,0.00,VWS V14.01,2013-02-14 11:50:00,
2013-02-14 05:55:00,36.3,24.1,30.02,South,191,2.0,7.0,61,0.00,,CLR,0.00,VWS V14.01,2013-02-14 11:55:00,
2013-02-14 06:00:00,36.3,24.5,30.03,SSW,203,5.0,7.0,62,0.00,,CLR,0.00,VWS V14.01,2013-02-14 12:00:00,
2013-02-14 06:05:00,36.2,23.7,30.03,South,191,2.0,7.0,60,0.00,,CLR,0.00,VWS V14.01,2013-02-14 12:05:00,
2013-02-14 06:10:00,36.3,23.4,30.03,SSW,203,3.0,7.0,59,0.00,,CLR,0.00,VWS V14.01,2013-02-14 12:10:00,
2013-02-14 06:15:00,36.3,24.5,30.03,SSW,202,3.0,7.0,62,0.00,,CLR,0.00,VWS V14.01,2013-02-14 12:15:00,
2013-02-14 06:20:00,36.2,24.1,30.03,SSW,195,2.0,7.0,61,0.00,,CLR,0.00,VWS V14.01,2013-02-14 12:20:00,
2013-02-14 06:25:00,36.2,24.1,30.03,SSW,192,5.0,7.0,61,0.00,,CLR,0.00,VWS V14.01,2013-02-14 12:25:00,
2013-02-14 06:31:00,36.0,23.9,30.03,SSW,196,0.0,7.0,61,0.00,,CLR,0.00,VWS V14.01,2013-02-14 12:31:00,
2013-02-14 06:36:00,36.0,23.9,30.03,South,182,0.0,7.0,61,0.00,,CLR,0.00,VWS V14.01,2013-02-14 12:36:00,
2013-02-14 06:41:00,35.9,24.2,30.03,South,182,0.0,7.0,62,0.00,,CLR,0.00,VWS V14.01,2013-02-14 12:41:00,
2013-02-14 06:46:00,35.8,24.5,30.04,South,182,0.0,7.0,63,0.00,,CLR,0.00,VWS V14.01,2013-02-14 12:46:00,
2013-02-14 06:51:00,35.6,24.3,30.04,South,189,0.0,7.0,63,0.00,,CLR,0.00,VWS V14.01,2013-02-14 12:51:00,
2013-02-14 06:56:00,35.5,24.2,30.04,South,189,0.0,7.0,63,0.00,,CLR,0.00,VWS V14.01,2013-02-14 12:56:00,
2013-02-14 07:01:00,35.5,24.2,30.05,South,189,0.0,0.0,63,0.00,,CLR,0.00,VWS V14.01,2013-02-14 13:01:00,
2013-02-14 07:06:00,35.5,24.2,30.05,South,189,0.0,1.0,63,0.00,,CLR,0.00,VWS V14.01,2013-02-14 13:06:00,
2013-02-14 07:11:00,35.3,24.0,30.05,South,189,0.0,1.0,63,0.00,,CLR,0.00,VWS V14.01,2013-02-14 13:11:00,
2013-02-14 07:16:00,35.3,24.0,30.06,South,189,0.0,1.0,63,0.00,,CLR,0.00,VWS V14.01,2013-02-14 13:16:00,
2013-02-14 07:21:00,35.2,23.9,30.06,South,189,0.0,1.0,63,0.00,,CLR,0.00,VWS V14.01,2013-02-14 13:21:00,
2013-02-14 07:26:00,35.0,23.7,30.06,South,189,0.0,1.0,63,0.00,,CLR,0.00,VWS V14.01,2013-02-14 13:26:00,
2013-02-14 07:31:00,35.2,24.3,30.06,South,189,0.0,1.0,64,0.00,,CLR,0.00,VWS V14.01,2013-02-14 13:31:00,
2013-02-14 07:36:00,35.6,24.6,30.06,South,189,0.0,2.0,64,0.00,,CLR,0.00,VWS V14.01,2013-02-14 13:36:00,
2013-02-14 07:41:00,36.3,24.9,30.06,South,189,3.0,3.0,63,0.00,,CLR,0.00,VWS V14.01,2013-02-14 13:41:00,
2013-02-14 07:46:00,36.9,24.3,30.06,South,189,2.0,3.0,60,0.00,,CLR,0.00,VWS V14.01,2013-02-14 13:46:00,
2013-02-14 07:51:00,37.0,24.8,30.06,SSW,208,3.0,5.0,61,0.00,,CLR,0.00,VWS V14.01,2013-02-14 13:51:00,
2013-02-14 07:56:00,37.0,24.8,30.06,SSW,192,2.0,6.0,61,0.00,,CLR,0.00,VWS V14.01,2013-02-14 13:56:00,
2013-02-14 08:01:00,36.9,25.5,30.07,SSW,195,2.0,6.0,63,0.00,,CLR,0.00,VWS V14.01,2013-02-14 14:01:00,
2013-02-14 08:06:00,36.9,24.7,30.07,SSW,203,5.0,7.0,61,0.00,,CLR,0.00,VWS V14.01,2013-02-14 14:06:00,
2013-02-14 08:12:00,37.0,25.6,30.07,SSW,200,0.0,7.0,63,0.00,,CLR,0.00,VWS V14.01,2013-02-14 14:12:00,
2013-02-14 08:17:00,37.3,25.9,30.08,SSW,198,2.0,7.0,63,0.00,,CLR,0.00,VWS V14.01,2013-02-14 14:17:00,
2013-02-14 08:22:00,37.6,26.2,30.08,SSW,203,0.0,7.0,63,0.00,,CLR,0.00,VWS V14.01,2013-02-14 14:22:00,
2013-02-14 08:27:00,38.2,26.3,30.08,SSW,209,0.0,7.0,62,0.00,,CLR,0.00,VWS V14.01,2013-02-14 14:27:00,
2013-02-14 08:32:00,38.6,26.3,30.09,SSW,208,0.0,7.0,61,0.00,,CLR,0.00,VWS V14.01,2013-02-14 14:32:00,
2013-02-14 08:37:00,39.1,26.8,30.09,SSW,208,0.0,7.0,61,0.00,,CLR,0.00,VWS V14.01,2013-02-14 14:37:00,
2013-02-14 08:42:00,39.5,27.6,30.09,SSW,212,0.0,7.0,62,0.00,,CLR,0.00,VWS V14.01,2013-02-14 14:42:00,
2013-02-14 08:47:00,40.3,27.5,30.09,WNW,284,5.0,8.0,60,0.00,,CLR,0.00,VWS V14.01,2013-02-14 14:47:00,
2013-02-14 08:52:00,41.1,27.5,30.09,WNW,287,3.0,8.0,58,0.00,,CLR,0.00,VWS V14.01,2013-02-14 14:52:00,
2013-02-14 08:57:00,41.6,27.5,30.09,West,270,2.0,8.0,57,0.00,,CLR,0.00,VWS V14.01,2013-02-14 14:57:00,
2013-02-14 09:02:00,41.9,27.4,30.10,WSW,248,5.0,5.0,56,0.00,,CLR,0.00,VWS V14.01,2013-02-14 15:02:00,
2013-02-14 09:07:00,42.1,27.1,30.10,West,278,3.0,7.0,55,0.00,,CLR,0.00,VWS V14.01,2013-02-14 15:07:00,
2013-02-14 09:12:00,42.2,28.1,30.10,West,268,3.0,7.0,57,0.00,,CLR,0.00,VWS V14.01,2013-02-14 15:12:00,
2013-02-14 09:17:00,42.6,28.0,30.10,WNW,289,1.0,7.0,56,0.00,,CLR,0.00,VWS V14.01,2013-02-14 15:17:00,
2013-02-14 09:22:00,42.9,27.9,30.10,WNW,284,2.0,7.0,55,0.00,,CLR,0.00,VWS V14.01,2013-02-14 15:22:00,
2013-02-14 09:27:00,43.5,28.0,30.10,NNW,346,1.0,7.0,54,0.00,,CLR,0.00,VWS V14.01,2013-02-14 15:27:00,
2013-02-14 09:32:00,44.2,28.6,30.09,WNW,294,2.0,7.0,54,0.00,,CLR,0.00,VWS V14.01,2013-02-14 15:32:00,
2013-02-14 09:37:00,44.9,27.9,30.09,North,0,2.0,7.0,51,0.00,,CLR,0.00,VWS V14.01,2013-02-14 15:37:00,
2013-02-14 09:42:00,45.2,28.2,30.09,NW,322,3.0,7.0,51,0.00,,CLR,0.00,VWS V14.01,2013-02-14 15:42:00,
2013-02-14 09:47:00,45.7,29.1,30.10,North,359,0.0,7.0,52,0.00,,CLR,0.00,VWS V14.01,2013-02-14 15:47:00,
2013-02-14 09:52:00,46.4,29.3,30.10,NNW,330,2.0,7.0,51,0.00,,CLR,0.00,VWS V14.01,2013-02-14 15:52:00,
2013-02-14 09:57:00,46.8,28.7,30.10,NNW,346,1.0,7.0,49,0.00,,CLR,0.00,VWS V14.01,2013-02-14 15:57:00,
2013-02-14 10:02:00,47.3,29.1,30.10,North,349,0.0,3.0,49,0.00,,CLR,0.00,VWS V14.01,2013-02-14 16:02:00,
2013-02-14 10:07:00,47.9,29.7,30.10,North,359,8.0,8.0,49,0.00,,CLR,0.00,VWS V14.01,2013-02-14 16:07:00,
2013-02-14 10:13:00,48.3,28.5,30.10,NW,318,2.0,12.0,46,0.00,,CLR,0.00,VWS V14.01,2013-02-14 16:13:00,
2013-02-14 10:18:00,48.2,29.5,30.10,NNE,23,0.0,12.0,48,0.00,,CLR,0.00,VWS V14.01,2013-02-14 16:18:00,
2013-02-14 10:23:00,48.8,30.0,30.10,North,356,7.0,12.0,48,0.00,,CLR,0.00,VWS V14.01,2013-02-14 16:23:00,
2013-02-14 10:28:00,49.2,29.3,30.10,NW,308,2.0,12.0,46,0.00,,CLR,0.00,VWS V14.01,2013-02-14 16:28:00,
2013-02-14 10:33:00,49.6,29.7,30.10,NNW,343,2.0,12.0,46,0.00,,CLR,0.00,VWS V14.01,2013-02-14 16:33:00,
2013-02-14 10:38:00,50.1,30.7,30.10,NNW,347,5.0,12.0,47,0.00,,CLR,0.00,VWS V14.01,2013-02-14 16:38:00,
2013-02-14 10:43:00,50.5,31.0,30.10,NE,52,2.0,12.0,47,0.00,,CLR,0.00,VWS V14.01,2013-02-14 16:43:00,
2013-02-14 10:48:00,50.7,30.7,30.10,NNE,21,0.0,12.0,46,0.00,,CLR,0.00,VWS V14.01,2013-02-14 16:48:00,
2013-02-14 10:53:00,50.8,31.3,30.10,NNE,32,2.0,12.0,47,0.00,,CLR,0.00,VWS V14.01,2013-02-14 16:53:00,
2013-02-14 10:58:00,50.7,31.2,30.10,WNW,288,0.0,12.0,47,0.00,,CLR,0.00,VWS V14.01,2013-02-14 16:58:00,
2013-02-14 11:00:00,51.9,31.2,30.10,NE,45,2.0,8.0,45,0.00,,OVC041CB,0.00,VWS V14.01,2013-02-14 17:00:00,
2013-02-14 11:03:00,51.1,31.1,30.10,NNW,342,1.0,5.0,46,0.00,,CLR,0.00,VWS V14.01,2013-02-14 17:03:00,
2013-02-14 11:08:00,51.7,31.1,30.10,North,359,8.0,8.0,45,0.00,,CLR,0.00,VWS V14.01,2013-02-14 17:08:00,
2013-02-14 11:13:00,52.2,31.5,30.10,North,356,2.0,8.0,45,0.00,,CLR,0.00,VWS V14.01,2013-02-14 17:13:00,
2013-02-14 11:18:00,52.6,31.3,30.11,North,359,0.0,8.0,44,0.00,,CLR,0.00,VWS V14.01,2013-02-14 17:18:00,
2013-02-14 11:23:00,52.9,31.0,30.11,North,354,8.0,8.0,43,0.00,,CLR,0.00,VWS V14.01,2013-02-14 17:23:00,
2013-02-14 11:28:00,53.1,31.8,30.11,North,1,2.0,8.0,44,0.00,,CLR,0.00,VWS V14.01,2013-02-14 17:28:00,
2013-02-14 11:33:00,52.3,31.6,30.10,NE,40,6.0,8.0,45,0.00,,CLR,0.00,VWS V14.01,2013-02-14 17:33:00,
2013-02-14 11:38:00,52.0,31.3,30.10,NE,35,2.0,8.0,45,0.00,,CLR,0.00,VWS V14.01,2013-02-14 17:38:00,
2013-02-14 11:43:00,51.7,31.1,30.10,ENE,65,2.0,8.0,45,0.00,,CLR,0.00,VWS V14.01,2013-02-14 17:43:00,
2013-02-14 11:48:00,51.9,31.8,30.10,NNE,17,0.0,8.0,46,0.00,,CLR,0.00,VWS V14.01,2013-02-14 17:48:00,
2013-02-14 11:53:00,51.9,32.3,30.10,NE,52,2.0,8.0,47,0.00,,CLR,0.00,VWS V14.01,2013-02-14 17:53:00,
2013-02-14 11:58:00,51.9,31.2,30.10,East,100,7.0,8.0,45,0.00,,CLR,0.00,VWS V14.01,2013-02-14 17:58:00,
2013-02-14 12:03:00,52.0,31.9,30.10,ENE,65,2.0,6.0,46,0.00,,CLR,0.00,VWS V14.01,2013-02-14 18:03:00,
2013-02-14 12:09:00,52.5,33.4,30.10,ENE,62,2.0,7.0,48,0.00,,CLR,0.00,VWS V14.01,2013-02-14 18:09:00,
2013-02-14 12:14:00,52.8,32.6,30.10,NE,41,5.0,7.0,46,0.00,,CLR,0.00,VWS V14.01,2013-02-14 18:14:00,
2013-02-14 12:19:00,53.1,32.3,30.10,NNE,30,2.0,7.0,45,0.00,,CLR,0.00,VWS V14.01,2013-02-14 18:19:00,
2013-02-14 12:24:00,53.9,31.9,30.10,NNW,337,2.0,7.0,43,0.00,,CLR,0.00,VWS V14.01,2013-02-14 18:24:00,
2013-02-14 12:29:00,54.2,32.8,30.10,NNW,343,5.0,7.0,44,0.00,,CLR,0.00,VWS V14.01,2013-02-14 18:29:00,
2013-02-14 12:34:00,54.8,31.6,30.09,NNE,16,1.0,7.0,41,0.00,,CLR,0.00,VWS V14.01,2013-02-14 18:34:00,
2013-02-14 12:39:00,55.1,32.4,30.09,NNE,32,2.0,7.0,42,0.00,,CLR,0.00,VWS V14.01,2013-02-14 18:39:00,
2013-02-14 12:44:00,54.8,32.2,30.09,North,10,2.0,7.0,42,0.00,,CLR,0.00,VWS V14.01,2013-02-14 18:44:00,
2013-02-14 12:49:00,54.8,32.2,30.09,NE,37,0.0,7.0,42,0.00,,CLR,0.00,VWS V14.01,2013-02-14 18:49:00,
2013-02-14 12:54:00,54.7,32.7,30.09,ENE,68,5.0,7.0,43,0.00,,CLR,0.00,VWS V14.01,2013-02-14 18:54:00,
2013-02-14 12:59:00,54.5,32.5,30.09,NNE,30,5.0,7.0,43,0.00,,CLR,0.00,VWS V14.01,2013-02-14 18:59:00,
2013-02-14 13:04:00,54.7,32.1,30.09,NNE,14,2.0,5.0,42,0.00,,CLR,0.00,VWS V14.01,2013-02-14 19:04:00,
2013-02-14 13:09:00,55.1,32.4,30.09,East,93,0.0,5.0,42,0.00,,CLR,0.00,VWS V14.01,2013-02-14 19:09:00,
2013-02-14 13:14:00,56.0,32.7,30.08,ENE,75,0.0,5.0,41,0.00,,CLR,0.00,VWS V14.01,2013-02-14 19:14:00,
2013-02-14 13:19:00,56.5,33.7,30.08,West,278,5.0,5.0,42,0.00,,CLR,0.00,VWS V14.01,2013-02-14 19:19:00,
2013-02-14 13:25:00,57.0,33.5,30.08,NNE,31,1.0,6.0,41,0.00,,CLR,0.00,VWS V14.01,2013-02-14 19:25:00,
2013-02-14 13:30:00,57.3,33.8,30.07,NW,316,2.0,6.0,41,0.00,,CLR,0.00,VWS V14.01,2013-02-14 19:30:00,
2013-02-14 13:35:00,57.5,34.0,30.07,WSW,237,2.0,8.0,41,0.00,,CLR,0.00,VWS V14.01,2013-02-14 19:35:00,
2013-02-14 13:40:00,57.6,33.5,30.07,WNW,288,0.0,8.0,40,0.00,,CLR,0.00,VWS V14.01,2013-02-14 19:40:00,
2013-02-14 13:45:00,57.8,34.3,30.07,ENE,68,2.0,8.0,41,0.00,,CLR,0.00,VWS V14.01,2013-02-14 19:45:00,
2013-02-14 13:50:00,57.3,34.4,30.07,WSW,256,1.0,8.0,42,0.00,,CLR,0.00,VWS V14.01,2013-02-14 19:50:00,
2013-02-14 13:55:00,57.0,33.5,30.07,WSW,258,3.0,10.0,41,0.00,,CLR,0.00,VWS V14.01,2013-02-14 19:55:00,
2013-02-14 14:00:00,57.3,33.8,30.07,NNW,330,2.0,10.0,41,0.00,,CLR,0.00,VWS V14.01,2013-02-14 20:00:00,
2013-02-14 14:05:00,57.2,32.5,30.07,West,278,2.0,10.0,39,0.00,,FEW120,0.00,VWS V14.01,2013-02-14 20:05:00,
2013-02-14 14:10:00,57.2,33.1,30.07,West,263,0.0,10.0,40,0.00,,FEW120,0.00,VWS V14.01,2013-02-14 20:10:00,
2013-02-14 14:15:00,57.5,34.0,30.06,West,278,10.0,10.0,41,0.00,,FEW120,0.00,VWS V14.01,2013-02-14 20:15:00,
2013-02-14 14:20:00,57.2,33.1,30.06,NW,311,1.0,10.0,40,0.00,,FEW120,0.00,VWS V14.01,2013-02-14 20:20:00,
2013-02-14 14:25:00,58.0,33.8,30.06,NNW,339,1.0,10.0,40,0.00,,FEW120,0.00,VWS V14.01,2013-02-14 20:25:00,
2013-02-14 14:30:00,58.6,33.7,30.06,NW,322,2.0,10.0,39,0.00,,FEW120,0.00,VWS V14.01,2013-02-14 20:30:00,
2013-02-14 14:35:00,58.1,33.9,30.06,NW,312,3.0,11.0,40,0.00,,FEW120,0.00,VWS V14.01,2013-02-14 20:35:00,
2013-02-14 14:40:00,58.0,34.5,30.06,WNW,292,5.0,11.0,41,0.00,,FEW120,0.00,VWS V14.01,2013-02-14 20:40:00,
2013-02-14 14:45:00,57.8,33.7,30.07,North,0,2.0,11.0,40,0.00,,FEW120,0.00,VWS V14.01,2013-02-14 20:45:00,
2013-02-14 14:50:00,58.3,34.1,30.07,North,359,5.0,11.0,40,0.00,,FEW120,0.00,VWS V14.01,2013-02-14 20:50:00,
2013-02-14 14:55:00,58.3,33.5,30.07,NW,304,0.0,11.0,39,0.00,,FEW120,0.00,VWS V14.01,2013-02-14 20:55:00,
2013-02-14 15:01:00,58.7,33.8,30.06,North,0,3.0,3.0,39,0.00,,CLR,0.00,VWS V14.01,2013-02-14 21:01:00,
2013-02-14 15:06:00,58.7,32.5,30.06,North,352,2.0,10.0,37,0.00,,CLR,0.00,VWS V14.01,2013-02-14 21:06:00,
2013-02-14 15:11:00,58.6,33.1,30.06,NW,312,2.0,14.0,38,0.00,,CLR,0.00,VWS V14.01,2013-02-14 21:11:00,
2013-02-14 15:16:00,59.0,33.5,30.06,WNW,291,2.0,14.0,38,0.00,,CLR,0.00,VWS V14.01,2013-02-14 21:16:00,
2013-02-14 15:21:00,58.7,32.5,30.06,North,359,2.0,14.0,37,0.00,,CLR,0.00,VWS V14.01,2013-02-14 21:21:00,
2013-02-14 15:26:00,58.6,32.4,30.06,West,277,2.0,14.0,37,0.00,,CLR,0.00,VWS V14.01,2013-02-14 21:26:00,
2013-02-14 15:31:00,58.9,32.7,30.06,NNW,344,2.0,14.0,37,0.00,,CLR,0.00,VWS V14.01,2013-02-14 21:31:00,
2013-02-14 15:36:00,58.9,33.4,30.06,NNE,13,0.0,14.0,38,0.00,,CLR,0.00,VWS V14.01,2013-02-14 21:36:00,
2013-02-14 15:41:00,59.0,32.1,30.06,WNW,302,2.0,14.0,36,0.00,,CLR,0.00,VWS V14.01,2013-02-14 21:41:00,
2013-02-14 15:46:00,59.0,31.4,30.06,North,352,1.0,14.0,35,0.00,,CLR,0.00,VWS V14.01,2013-02-14 21:46:00,
2013-02-14 15:51:00,58.9,31.3,30.06,North,356,0.0,14.0,35,0.00,,CLR,0.00,VWS V14.01,2013-02-14 21:51:00,
2013-02-14 15:56:00,58.9,32.0,30.06,North,8,5.0,14.0,36,0.00,,CLR,0.00,VWS V14.01,2013-02-14 21:56:00,
2013-02-14 16:00:00,56.7,32.0,30.08,NNE,13,5.0,12.0,39,0.00,,OVC041CB,0.00,VWS V14.01,2013-02-14 22:00:00,
2013-02-14 16:01:00,59.0,32.1,30.06,North,359,3.0,3.0,36,0.00,,CLR,0.00,VWS V14.01,2013-02-14 22:01:00,
2013-02-14 16:06:00,59.2,31.6,30.06,NW,312,2.0,8.0,35,0.00,,CLR,0.00,VWS V14.01,2013-02-14 22:06:00,
2013-02-14 16:11:00,58.9,32.7,30.06,North,0,2.0,8.0,37,0.00,,CLR,0.00,VWS V14.01,2013-02-14 22:11:00,
2013-02-14 16:16:00,58.6,31.0,30.07,NNW,332,5.0,8.0,35,0.00,,CLR,0.00,VWS V14.01,2013-02-14 22:16:00,
2013-02-14 16:21:00,58.3,33.5,30.07,North,353,6.0,12.0,39,0.00,,CLR,0.00,VWS V14.01,2013-02-14 22:21:00,
2013-02-14 16:26:00,58.0,32.6,30.07,NNW,328,8.0,12.0,38,0.00,,CLR,0.00,VWS V14.01,2013-02-14 22:26:00,
2013-02-14 16:31:00,57.8,33.0,30.07,North,352,3.0,12.0,39,0.00,,CLR,0.00,VWS V14.01,2013-02-14 22:31:00,
2013-02-14 16:36:00,57.6,32.8,30.07,North,359,2.0,12.0,39,0.00,,CLR,0.00,VWS V14.01,2013-02-14 22:36:00,
2013-02-14 16:41:00,57.3,31.9,30.07,North,350,2.0,12.0,38,0.00,,CLR,0.00,VWS V14.01,2013-02-14 22:41:00,
2013-02-14 16:46:00,57.0,32.3,30.08,North,0,7.0,12.0,39,0.00,,CLR,0.00,VWS V14.01,2013-02-14 22:46:00,
2013-02-14 16:51:00,56.9,31.6,30.08,West,260,0.0,12.0,38,0.00,,CLR,0.00,VWS V14.01,2013-02-14 22:51:00,
2013-02-14 16:57:00,56.7,30.7,30.08,North,6,5.0,12.0,37,0.00,,CLR,0.00,VWS V14.01,2013-02-14 22:57:00,
2013-02-14 17:02:00,56.6,32.6,30.08,North,359,11.0,11.0,40,0.00,,FEW120,0.00,VWS V14.01,2013-02-14 23:02:00,
2013-02-14 17:07:00,56.3,31.7,30.08,North,8,2.0,12.0,39,0.00,,FEW120,0.00,VWS V14.01,2013-02-14 23:07:00,
2013-02-14 17:12:00,56.0,32.0,30.08,North,1,7.0,12.0,40,0.00,,FEW120,0.00,VWS V14.01,2013-02-14 23:12:00,
2013-02-14 17:17:00,55.6,31.1,30.09,North,359,2.0,12.0,39,0.00,,FEW120,0.00,VWS V14.01,2013-02-14 23:17:00,
2013-02-14 17:22:00,55.3,30.8,30.09,NNE,13,3.0,12.0,39,0.00,,FEW120,0.00,VWS V14.01,2013-02-14 23:22:00,
2013-02-14 17:27:00,55.0,30.5,30.09,NE,37,2.0,12.0,39,0.00,,FEW120,0.00,VWS V14.01,2013-02-14 23:27:00,
2013-02-14 17:32:00,54.5,30.7,30.10,NNE,16,0.0,12.0,40,0.00,,FEW120,0.00,VWS V14.01,2013-02-14 23:32:00,
2013-02-14 17:37:00,54.2,30.4,30.10,North,0,5.0,12.0,40,0.00,,FEW120,0.00,VWS V14.01,2013-02-14 23:37:00,
2013-02-14 17:42:00,54.1,30.3,30.10,North,359,3.0,12.0,40,0.00,,FEW120,0.00,VWS V14.01,2013-02-14 23:42:00,
2013-02-14 17:47:00,53.8,31.9,30.11,North,0,2.0,12.0,43,0.00,,FEW120,0.00,VWS V14.01,2013-02-14 23:47:00,
2013-02-14 17:52:00,53.5,31.6,30.11,North,8,0.0,12.0,43,0.00,,FEW120,0.00,VWS V14.01,2013-02-14 23:52:00,
2013-02-14 17:57:00,53.3,30.8,30.11,NNW,347,5.0,12.0,42,0.00,,FEW120,0.00,VWS V14.01,2013-02-14 23:57:00,
2013-02-14 18:02:00,53.1,30.6,30.12,North,7,3.0,8.0,42,0.00,,BKN120,0.00,VWS V14.01,2013-02-15 00:02:00,
2013-02-14 18:07:00,52.9,29.9,30.12,North,356,3.0,8.0,41,0.00,,BKN120,0.00,VWS V14.01,2013-02-15 00:07:00,
2013-02-14 18:12:00,52.8,29.2,30.12,North,0,0.0,8.0,40,0.00,,BKN120,0.00,VWS V14.01,2013-02-15 00:12:00,
2013-02-14 18:17:00,52.5,30.1,30.13,North,1,2.0,8.0,42,0.00,,BKN120,0.00,VWS V14.01,2013-02-15 00:17:00,
2013-02-14 18:22:00,52.3,29.3,30.13,North,359,3.0,8.0,41,0.00,,BKN120,0.00,VWS V14.01,2013-02-15 00:22:00,
2013-02-14 18:27:00,52.2,29.8,30.13,North,0,5.0,8.0,42,0.00,,BKN120,0.00,VWS V14.01,2013-02-15 00:27:00,
2013-02-14 18:32:00,52.0,30.2,30.14,North,352,2.0,8.0,43,0.00,,BKN120,0.00,VWS V14.01,2013-02-15 00:32:00,
2013-02-14 18:37:00,51.9,30.1,30.14,North,350,1.0,8.0,43,0.00,,BKN120,0.00,VWS V14.01,2013-02-15 00:37:00,
2013-02-14 18:42:00,51.7,29.9,30.14,North,354,1.0,8.0,43,0.00,,BKN120,0.00,VWS V14.01,2013-02-15 00:42:00,
2013-02-14 18:48:00,51.7,29.9,30.15,North,356,1.0,8.0,43,0.00,,BKN120,0.00,VWS V14.01,2013-02-15 00:48:00,
2013-02-14 18:53:00,51.4,30.8,30.15,North,352,1.0,8.0,45,0.00,,BKN120,0.00,VWS V14.01,2013-02-15 00:53:00,
2013-02-14 18:58:00,51.1,30.5,30.15,NNW,344,0.0,8.0,45,0.00,,BKN120,0.00,VWS V14.01,2013-02-15 00:58:00,
2013-02-14 19:03:00,51.0,30.4,30.15,NNW,347,1.0,2.0,45,0.00,,BKN120,0.00,VWS V14.01,2013-02-15 01:03:00,
2013-02-14 19:08:00,50.7,30.7,30.15,NNW,347,0.0,5.0,46,0.00,,BKN120,0.00,VWS V14.01,2013-02-15 01:08:00,
2013-02-14 19:13:00,50.5,30.5,30.15,NNW,343,3.0,5.0,46,0.00,,BKN120,0.00,VWS V14.01,2013-02-15 01:13:00,
2013-02-14 19:18:00,50.4,30.4,30.16,NNW,346,0.0,5.0,46,0.00,,BKN120,0.00,VWS V14.01,2013-02-15 01:18:00,
2013-02-14 19:23:00,50.2,30.2,30.16,North,353,0.0,5.0,46,0.00,,BKN120,0.00,VWS V14.01,2013-02-15 01:23:00,
2013-02-14 19:28:00,50.1,30.7,30.16,North,352,2.0,5.0,47,0.00,,BKN120,0.00,VWS V14.01,2013-02-15 01:28:00,
2013-02-14 19:33:00,49.9,30.5,30.16,North,359,2.0,5.0,47,0.00,,BKN120,0.00,VWS V14.01,2013-02-15 01:33:00,
2013-02-14 19:38:00,49.8,30.4,30.16,North,359,0.0,5.0,47,0.00,,BKN120,0.00,VWS V14.01,2013-02-15 01:38:00,
2013-02-14 19:43:00,49.8,30.9,30.16,North,0,6.0,12.0,48,0.00,,BKN120,0.00,VWS V14.01,2013-02-15 01:43:00,
2013-02-14 19:48:00,49.9,31.5,30.17,NNE,16,2.0,12.0,49,0.00,,BKN120,0.00,VWS V14.01,2013-02-15 01:48:00,
2013-02-14 19:53:00,49.8,30.4,30.17,North,354,7.0,12.0,47,0.00,,BKN120,0.00,VWS V14.01,2013-02-15 01:53:00,
2013-02-14 19:58:00,49.8,31.4,30.17,North,0,0.0,12.0,49,0.00,,BKN120,0.00,VWS V14.01,2013-02-15 01:58:00,
2013-02-14 20:03:00,49.6,31.7,30.18,North,354,5.0,6.0,50,0.00,,BKN110,0.00,VWS V14.01,2013-02-15 02:03:00,
2013-02-14 20:08:00,49.5,32.1,30.18,NNW,336,1.0,8.0,51,0.00,,BKN110,0.00,VWS V14.01,2013-02-15 02:08:00,
2013-02-14 20:13:00,49.4,32.0,30.18,NNE,13,7.0,8.0,51,0.00,,BKN110,0.00,VWS V14.01,2013-02-15 02:13:00,
2013-02-14 20:18:00,49.2,32.3,30.18,NNW,336,1.0,8.0,52,0.00,,BKN110,0.00,VWS V14.01,2013-02-15 02:18:00,
2013-02-14 20:23:00,49.1,31.8,30.18,North,359,5.0,8.0,51,0.00,,BKN110,0.00,VWS V14.01,2013-02-15 02:23:00,
2013-02-14 20:28:00,49.1,31.8,30.18,North,356,5.0,8.0,51,0.00,,BKN110,0.00,VWS V14.01,2013-02-15 02:28:00,
2013-02-14 20:33:00,49.1,31.8,30.19,NNW,346,0.0,8.0,51,0.00,,BKN110,0.00,VWS V14.01,2013-02-15 02:33:00,
2013-02-14 20:38:00,49.1,31.8,30.19,North,0,1.0,8.0,51,0.00,,BKN110,0.00,VWS V14.01,2013-02-15 02:38:00,
2013-02-14 20:43:00,49.1,31.3,30.19,NW,323,2.0,8.0,50,0.00,,BKN110,0.00,VWS V14.01,2013-02-15 02:43:00,
2013-02-14 20:49:00,49.1,31.3,30.19,North,7,8.0,8.0,50,0.00,,BKN110,0.00,VWS V14.01,2013-02-15 02:49:00,
2013-02-14 20:54:00,49.2,30.4,30.19,North,356,6.0,10.0,48,0.00,,BKN110,0.00,VWS V14.01,2013-02-15 02:54:00,
2013-02-14 20:59:00,49.2,30.9,30.19,NE,41,2.0,10.0,49,0.00,,BKN110,0.00,VWS V14.01,2013-02-15 02:59:00,
2013-02-14 21:04:00,49.1,30.3,30.19,North,359,5.0,6.0,48,0.00,,BKN110,0.00,VWS V14.01,2013-02-15 03:04:00,
2013-02-14 21:09:00,49.1,30.3,30.19,WSW,250,0.0,12.0,48,0.00,,BKN110,0.00,VWS V14.01,2013-02-15 03:09:00,
2013-02-14 21:14:00,48.9,30.1,30.19,North,8,1.0,12.0,48,0.00,,BKN110,0.00,VWS V14.01,2013-02-15 03:14:00,
2013-02-14 21:19:00,48.9,31.1,30.20,NNE,21,5.0,12.0,50,0.00,,BKN110,0.00,VWS V14.01,2013-02-15 03:19:00,
2013-02-14 21:24:00,48.8,30.0,30.20,NNW,336,3.0,12.0,48,0.00,,BKN110,0.00,VWS V14.01,2013-02-15 03:24:00,
2013-02-14 21:29:00,48.8,30.0,30.20,NNW,337,1.0,14.0,48,0.00,,BKN110,0.00,VWS V14.01,2013-02-15 03:29:00,
2013-02-14 21:34:00,48.6,30.3,30.21,North,359,2.0,14.0,49,0.00,,BKN110,0.00,VWS V14.01,2013-02-15 03:34:00,
2013-02-14 21:39:00,48.5,30.7,30.21,North,4,5.0,14.0,50,0.00,,BKN110,0.00,VWS V14.01,2013-02-15 03:39:00,
2013-02-14 21:44:00,48.3,30.5,30.21,WSW,240,2.0,14.0,50,0.00,,BKN110,0.00,VWS V14.01,2013-02-15 03:44:00,
2013-02-14 21:49:00,48.3,30.0,30.21,NNE,20,0.0,14.0,49,0.00,,BKN110,0.00,VWS V14.01,2013-02-15 03:49:00,
2013-02-14 21:54:00,48.3,30.5,30.21,SW,233,7.0,14.0,50,0.00,,BKN110,0.00,VWS V14.01,2013-02-15 03:54:00,
2013-02-14 21:59:00,48.3,31.0,30.22,NW,320,2.0,14.0,51,0.00,,BKN110,0.00,VWS V14.01,2013-02-15 03:59:00,
2013-02-14 22:04:00,48.2,30.9,30.22,SE,133,1.0,12.0,51,0.00,,OVC065,0.00,VWS V14.01,2013-02-15 04:04:00,
2013-02-14 22:10:00,48.0,30.3,30.22,NW,313,5.0,14.0,50,0.00,,OVC065,0.00,VWS V14.01,2013-02-15 04:10:00,
2013-02-14 22:15:00,47.9,29.7,30.22,West,274,2.0,14.0,49,0.00,,OVC065,0.00,VWS V14.01,2013-02-15 04:15:00,
2013-02-14 22:20:00,47.7,29.5,30.22,NNW,343,2.0,14.0,49,0.00,,OVC065,0.00,VWS V14.01,2013-02-15 04:20:00,
2013-02-14 22:25:00,47.4,29.2,30.22,North,354,2.0,16.0,49,0.00,,OVC065,0.00,VWS V14.01,2013-02-15 04:25:00,
2013-02-14 22:30:00,47.3,29.6,30.23,WNW,298,7.0,16.0,50,0.00,,OVC065,0.00,VWS V14.01,2013-02-15 04:30:00,
2013-02-14 22:35:00,46.8,29.2,30.23,North,354,6.0,16.0,50,0.00,,OVC065,0.00,VWS V14.01,2013-02-15 04:35:00,
2013-02-14 22:40:00,46.4,30.2,30.23,NW,306,5.0,16.0,53,0.00,,OVC065,0.00,VWS V14.01,2013-02-15 04:40:00,
2013-02-14 22:45:00,46.0,30.3,30.24,North,359,10.0,16.0,54,0.00,,OVC065,0.00,VWS V14.01,2013-02-15 04:45:00,
2013-02-14 22:50:00,45.4,30.6,30.24,SSE,151,1.0,16.0,56,0.00,,OVC065,0.00,VWS V14.01,2013-02-15 04:50:00,
2013-02-14 22:55:00,45.1,32.1,30.24,ENE,66,1.0,16.0,60,0.00,,OVC065,0.00,VWS V14.01,2013-02-15 04:55:00,
2013-02-14 23:00:00,44.9,31.0,30.24,North,354,5.0,16.0,58,0.00,,OVC065,0.00,VWS V14.01,2013-02-15 05:00:00,
2013-02-14 23:01:00,44.9,31.0,30.24,NNW,340,5.0,5.0,58,0.00,,OVC065,0.00,VWS V14.01,2013-02-15 05:01:00,
2013-02-14 23:02:00,44.9,30.2,30.24,North,354,5.0,7.0,56,0.00,,OVC065,0.00,VWS V14.01,2013-02-15 05:02:00,
2013-02-14 23:07:00,45.1,30.4,30.24,North,1,0.0,8.0,56,0.00,,OVC065,0.00,VWS V14.01,2013-02-15 05:07:00,
2013-02-14 23:12:00,45.1,30.4,30.24,NNW,329,0.0,8.0,56,0.00,,OVC065,0.00,VWS V14.01,2013-02-15 05:12:00,
2013-02-14 23:17:00,45.1,29.9,30.24,North,354,0.0,8.0,55,0.00,,OVC065,0.00,VWS V14.01,2013-02-15 05:17:00,
2013-02-14 23:22:00,44.9,29.7,30.24,North,0,0.0,8.0,55,0.00,,OVC065,0.00,VWS V14.01,2013-02-15 05:22:00,
2013-02-14 23:27:00,44.9,29.7,30.24,North,4,0.0,8.0,55,0.00,,OVC065,0.00,VWS V14.01,2013-02-15 05:27:00,
2013-02-14 23:32:00,44.9,29.7,30.24,WSW,257,1.0,8.0,55,0.00,,OVC065,0.00,VWS V14.01,2013-02-15 05:32:00,
2013-02-14 23:37:00,44.8,29.6,30.24,West,280,0.0,8.0,55,0.00,,OVC065,0.00,VWS V14.01,2013-02-15 05:37:00,
2013-02-14 23:42:00,44.8,29.6,30.24,WNW,284,0.0,8.0,55,0.00,,OVC065,0.00,VWS V14.01,2013-02-15 05:42:00,
2013-02-14 23:47:00,44.8,29.6,30.24,NW,323,1.0,8.0,55,0.00,,OVC065,0.00,VWS V14.01,2013-02-15 05:47:00,
2013-02-14 23:52:00,44.8,29.2,30.24,NW,315,0.0,8.0,54,0.00,,OVC065,0.00,VWS V14.01,2013-02-15 05:52:00,
2013-02-14 23:57:00,44.6,29.0,30.24,WNW,302,0.0,8.0,54,0.00,,OVC065,0.00,VWS V14.01,2013-02-15 05:57:00,